sensor_id;sensor_type;location;lat;lon;timestamp;pressure;altitude;pressure_sealevel;temperature;humidity
14204;BME280;7185;51.854;6.622;2023-02-11T00:00:30;103069.13;;;7.52;100.00
14204;BME280;7185;51.854;6.622;2023-02-11T00:03:01;103060.47;;;7.53;100.00
14204;BME280;7185;51.854;6.622;2023-02-11T00:05:33;103056.38;;;7.61;100.00
14204;BME280;7185;51.854;6.622;2023-02-11T00:08:06;103050.53;;;7.69;100.00
14204;BME280;7185;51.854;6.622;2023-02-11T00:10:37;103045.00;;;7.59;100.00
14204;BME280;7185;51.854;6.622;2023-02-11T00:13:10;103045.00;;;7.59;100.00
14204;BME280;7185;51.854;6.622;2023-02-11T00:15:42;103051.31;;;7.66;100.00
14204;BME280;7185;51.854;6.622;2023-02-11T00:18:14;103050.34;;;7.62;100.00
14204;BME280;7185;51.854;6.622;2023-02-11T00:20:45;103054.66;;;7.62;100.00
14204;BME280;7185;51.854;6.622;2023-02-11T00:23:17;103055.34;;;7.56;100.00
14204;BME280;7185;51.854;6.622;2023-02-11T00:25:48;103061.09;;;7.72;100.00
14204;BME280;7185;51.854;6.622;2023-02-11T00:28:21;103056.50;;;7.64;100.00
14204;BME280;7185;51.854;6.622;2023-02-11T00:30:53;103049.34;;;7.59;100.00
14204;BME280;7185;51.854;6.622;2023-02-11T00:33:25;103047.09;;;7.70;100.00
14204;BME280;7185;51.854;6.622;2023-02-11T00:35:57;103048.94;;;7.74;100.00
14204;BME280;7185;51.854;6.622;2023-02-11T00:38:29;103053.50;;;7.79;100.00
14204;BME280;7185;51.854;6.622;2023-02-11T00:41:00;103040.88;;;7.66;100.00
14204;BME280;7185;51.854;6.622;2023-02-11T00:43:34;103044.84;;;7.55;100.00
14204;BME280;7185;51.854;6.622;2023-02-11T00:46:06;103039.38;;;7.47;100.00
14204;BME280;7185;51.854;6.622;2023-02-11T00:48:39;103036.13;;;7.54;100.00
14204;BME280;7185;51.854;6.622;2023-02-11T00:51:11;103036.44;;;7.63;100.00
14204;BME280;7185;51.854;6.622;2023-02-11T00:53:42;103043.22;;;7.58;100.00
14204;BME280;7185;51.854;6.622;2023-02-11T00:56:14;103066.00;;;7.62;100.00
14204;BME280;7185;51.854;6.622;2023-02-11T00:58:47;103055.75;;;7.69;100.00
14204;BME280;7185;51.854;6.622;2023-02-11T01:01:20;103067.78;;;7.63;100.00
14204;BME280;7185;51.854;6.622;2023-02-11T01:03:52;103066.16;;;7.67;100.00
14204;BME280;7185;51.854;6.622;2023-02-11T01:06:26;103072.88;;;7.60;100.00
14204;BME280;7185;51.854;6.622;2023-02-11T01:08:58;103077.13;;;7.57;100.00
14204;BME280;7185;51.854;6.622;2023-02-11T01:11:30;103069.66;;;7.68;100.00
14204;BME280;7185;51.854;6.622;2023-02-11T01:14:03;103067.66;;;7.60;100.00
14204;BME280;7185;51.854;6.622;2023-02-11T01:16:34;103062.44;;;7.60;100.00
14204;BME280;7185;51.854;6.622;2023-02-11T01:19:06;103050.13;;;7.56;100.00
14204;BME280;7185;51.854;6.622;2023-02-11T01:21:38;103044.13;;;7.59;100.00
14204;BME280;7185;51.854;6.622;2023-02-11T01:24:09;103040.72;;;7.61;100.00
14204;BME280;7185;51.854;6.622;2023-02-11T01:26:41;103030.13;;;7.57;100.00
14204;BME280;7185;51.854;6.622;2023-02-11T01:29:14;103035.25;;;7.54;100.00
14204;BME280;7185;51.854;6.622;2023-02-11T01:31:45;103028.34;;;7.56;100.00
14204;BME280;7185;51.854;6.622;2023-02-11T01:34:17;103026.00;;;7.63;100.00
14204;BME280;7185;51.854;6.622;2023-02-11T01:36:48;103023.28;;;7.60;100.00
14204;BME280;7185;51.854;6.622;2023-02-11T01:39:20;103018.16;;;7.63;100.00
14204;BME280;7185;51.854;6.622;2023-02-11T01:41:52;103020.66;;;7.60;100.00
14204;BME280;7185;51.854;6.622;2023-02-11T01:44:28;103023.59;;;7.70;100.00
14204;BME280;7185;51.854;6.622;2023-02-11T01:47:00;103019.09;;;7.65;100.00
14204;BME280;7185;51.854;6.622;2023-02-11T01:49:37;103027.84;;;7.68;100.00
14204;BME280;7185;51.854;6.622;2023-02-11T01:52:13;103039.78;;;7.59;100.00
14204;BME280;7185;51.854;6.622;2023-02-11T01:54:49;103034.50;;;7.58;100.00
14204;BME280;7185;51.854;6.622;2023-02-11T01:57:42;103030.91;;;7.54;100.00
14204;BME280;7185;51.854;6.622;2023-02-11T02:00:19;103026.00;;;7.63;100.00
14204;BME280;7185;51.854;6.622;2023-02-11T02:02:57;103017.22;;;7.61;100.00
14204;BME280;7185;51.854;6.622;2023-02-11T02:05:34;103015.56;;;7.63;100.00
14204;BME280;7185;51.854;6.622;2023-02-11T02:08:11;103018.88;;;7.59;100.00
14204;BME280;7185;51.854;6.622;2023-02-11T02:10:48;103020.47;;;7.54;100.00
14204;BME280;7185;51.854;6.622;2023-02-11T02:13:23;103028.44;;;7.59;100.00
14204;BME280;7185;51.854;6.622;2023-02-11T02:15:58;103025.56;;;7.51;100.00
14204;BME280;7185;51.854;6.622;2023-02-11T02:18:35;103020.47;;;7.54;100.00
14204;BME280;7185;51.854;6.622;2023-02-11T02:21:47;103022.13;;;7.52;100.00
14204;BME280;7185;51.854;6.622;2023-02-11T02:24:38;103022.44;;;7.61;100.00
14204;BME280;7185;51.854;6.622;2023-02-11T02:27:26;103018.47;;;7.47;100.00
14204;BME280;7185;51.854;6.622;2023-02-11T02:30:37;103012.69;;;7.56;100.00
14204;BME280;7185;51.854;6.622;2023-02-11T02:33:24;103016.81;;;7.49;100.00
14204;BME280;7185;51.854;6.622;2023-02-11T02:36:06;103009.91;;;7.51;100.00
14204;BME280;7185;51.854;6.622;2023-02-11T02:38:43;103000.09;;;7.44;100.00
14204;BME280;7185;51.854;6.622;2023-02-11T02:41:20;103005.44;;;7.47;100.00
14204;BME280;7185;51.854;6.622;2023-02-11T02:43:53;103008.09;;;7.48;100.00
14204;BME280;7185;51.854;6.622;2023-02-11T02:46:27;102992.53;;;7.52;100.00
14204;BME280;7185;51.854;6.622;2023-02-11T02:49:01;102985.66;;;7.54;100.00
14204;BME280;7185;51.854;6.622;2023-02-11T02:51:55;102990.81;;;7.52;100.00
14204;BME280;7185;51.854;6.622;2023-02-11T02:54:57;102994.78;;;7.41;100.00
14204;BME280;7185;51.854;6.622;2023-02-11T02:57:38;102996.66;;;7.45;100.00
14204;BME280;7185;51.854;6.622;2023-02-11T03:00:22;103002.81;;;7.47;100.00
14204;BME280;7185;51.854;6.622;2023-02-11T03:03:08;103009.16;;;7.54;100.00
14204;BME280;7185;51.854;6.622;2023-02-11T03:05:48;103007.59;;;7.60;100.00
14204;BME280;7185;51.854;6.622;2023-02-11T03:08:27;103002.94;;;7.50;100.00
14204;BME280;7185;51.854;6.622;2023-02-11T03:11:01;103005.19;;;7.39;100.00
14204;BME280;7185;51.854;6.622;2023-02-11T03:13:35;103009.00;;;7.49;100.00
14204;BME280;7185;51.854;6.622;2023-02-11T03:16:10;103006.91;;;7.39;100.00
14204;BME280;7185;51.854;6.622;2023-02-11T03:18:48;102998.06;;;7.35;100.00
14204;BME280;7185;51.854;6.622;2023-02-11T03:21:22;103000.09;;;7.44;100.00
14204;BME280;7185;51.854;6.622;2023-02-11T03:23:57;103001.88;;;7.45;100.00
14204;BME280;7185;51.854;6.622;2023-02-11T03:26:34;102987.84;;;7.41;100.00
14204;BME280;7185;51.854;6.622;2023-02-11T03:29:13;102986.69;;;7.59;100.00
14204;BME280;7185;51.854;6.622;2023-02-11T03:31:54;102984.66;;;7.50;100.00
14204;BME280;7185;51.854;6.622;2023-02-11T03:34:31;102981.94;;;7.47;100.00
14204;BME280;7185;51.854;6.622;2023-02-11T03:37:09;102970.16;;;7.32;100.00
14204;BME280;7185;51.854;6.622;2023-02-11T03:39:46;102977.50;;;7.44;100.00
14204;BME280;7185;51.854;6.622;2023-02-11T03:42:20;102972.75;;;7.32;100.00
14204;BME280;7185;51.854;6.622;2023-02-11T03:44:58;102968.78;;;7.44;100.00
14204;BME280;7185;51.854;6.622;2023-02-11T03:47:32;102969.72;;;7.46;100.00
14204;BME280;7185;51.854;6.622;2023-02-11T03:50:07;102978.38;;;7.45;100.00
14204;BME280;7185;51.854;6.622;2023-02-11T03:52:42;102976.31;;;7.34;100.00
14204;BME280;7185;51.854;6.622;2023-02-11T03:55:18;102973.59;;;7.31;100.00
14204;BME280;7185;51.854;6.622;2023-02-11T03:57:50;102980.44;;;7.28;100.00
14204;BME280;7185;51.854;6.622;2023-02-11T04:00:29;102992.34;;;7.45;100.00
14204;BME280;7185;51.854;6.622;2023-02-11T04:03:00;102993.56;;;7.29;100.00
14204;BME280;7185;51.854;6.622;2023-02-11T04:05:32;102989.03;;;7.25;100.00
14204;BME280;7185;51.854;6.622;2023-02-11T04:08:05;103000.84;;;7.40;100.00
14204;BME280;7185;51.854;6.622;2023-02-11T04:10:37;103000.97;;;7.43;100.00
14204;BME280;7185;51.854;6.622;2023-02-11T04:13:09;102999.19;;;7.42;100.00
14204;BME280;7185;51.854;6.622;2023-02-11T04:15:40;102994.63;;;7.36;100.00
14204;BME280;7185;51.854;6.622;2023-02-11T04:18:12;103004.41;;;7.42;100.00
14204;BME280;7185;51.854;6.622;2023-02-11T04:20:43;103002.03;;;7.49;100.00
14204;BME280;7185;51.854;6.622;2023-02-11T04:23:16;103000.84;;;7.40;100.00
14204;BME280;7185;51.854;6.622;2023-02-11T04:25:49;103000.97;;;7.43;100.00
14204;BME280;7185;51.854;6.622;2023-02-11T04:28:21;102987.63;;;7.35;100.00
14204;BME280;7185;51.854;6.622;2023-02-11T04:30:53;102997.28;;;7.38;100.00
14204;BME280;7185;51.854;6.622;2023-02-11T04:33:24;102998.97;;;7.36;100.00
14204;BME280;7185;51.854;6.622;2023-02-11T04:35:56;103000.72;;;7.37;100.00
14204;BME280;7185;51.854;6.622;2023-02-11T04:38:29;102990.50;;;7.17;100.00
14204;BME280;7185;51.854;6.622;2023-02-11T04:41:00;102996.25;;;7.32;100.00
14204;BME280;7185;51.854;6.622;2023-02-11T04:43:32;102992.75;;;7.32;100.00
14204;BME280;7185;51.854;6.622;2023-02-11T04:46:04;102996.41;;;7.37;100.00
14204;BME280;7185;51.854;6.622;2023-02-11T04:48:35;102992.69;;;7.30;100.00
14204;BME280;7185;51.854;6.622;2023-02-11T04:51:08;102992.56;;;7.26;100.00
14204;BME280;7185;51.854;6.622;2023-02-11T04:53:41;102991.78;;;7.28;100.00
14204;BME280;7185;51.854;6.622;2023-02-11T04:56:12;102996.38;;;7.36;100.00
14204;BME280;7185;51.854;6.622;2023-02-11T04:58:44;102995.31;;;7.30;100.00
14204;BME280;7185;51.854;6.622;2023-02-11T05:01:16;102994.22;;;7.24;100.00
14204;BME280;7185;51.854;6.622;2023-02-11T05:03:47;102998.97;;;7.36;100.00
14204;BME280;7185;51.854;6.622;2023-02-11T05:06:20;103005.22;;;7.41;100.00
14204;BME280;7185;51.854;6.622;2023-02-11T05:08:53;103007.06;;;7.43;100.00
14204;BME280;7185;51.854;6.622;2023-02-11T05:11:24;103008.88;;;7.20;100.00
14204;BME280;7185;51.854;6.622;2023-02-11T05:13:56;103004.19;;;7.36;100.00
14204;BME280;7185;51.854;6.622;2023-02-11T05:16:27;102999.06;;;7.39;100.00
14204;BME280;7185;51.854;6.622;2023-02-11T05:18:59;103006.06;;;7.40;100.00
14204;BME280;7185;51.854;6.622;2023-02-11T05:21:31;103002.50;;;7.38;100.00
14204;BME280;7185;51.854;6.622;2023-02-11T05:24:05;102997.28;;;7.38;100.00
14204;BME280;7185;51.854;6.622;2023-02-11T05:26:37;102992.19;;;7.41;100.00
14204;BME280;7185;51.854;6.622;2023-02-11T05:29:08;102995.63;;;7.40;100.00
14204;BME280;7185;51.854;6.622;2023-02-11T05:31:40;103001.63;;;7.37;100.00
14204;BME280;7185;51.854;6.622;2023-02-11T05:34:11;102999.03;;;7.37;100.00
14204;BME280;7185;51.854;6.622;2023-02-11T05:36:43;102990.09;;;7.30;100.00
14204;BME280;7185;51.854;6.622;2023-02-11T05:39:16;102997.13;;;7.33;100.00
14204;BME280;7185;51.854;6.622;2023-02-11T05:41:47;102991.03;;;7.32;100.00
14204;BME280;7185;51.854;6.622;2023-02-11T05:44:19;102996.50;;;7.14;100.00
14204;BME280;7185;51.854;6.622;2023-02-11T05:46:51;102990.00;;;7.27;100.00
14204;BME280;7185;51.854;6.622;2023-02-11T05:49:22;102988.53;;;7.36;100.00
14204;BME280;7185;51.854;6.622;2023-02-11T05:51:54;102993.16;;;7.44;100.00
14204;BME280;7185;51.854;6.622;2023-02-11T05:54:27;102988.03;;;7.47;100.00
14204;BME280;7185;51.854;6.622;2023-02-11T05:56:59;102991.91;;;7.33;100.00
14204;BME280;7185;51.854;6.622;2023-02-11T05:59:30;102995.72;;;7.17;100.00
14204;BME280;7185;51.854;6.622;2023-02-11T06:02:02;103003.53;;;7.17;100.00
14204;BME280;7185;51.854;6.622;2023-02-11T06:04:33;102994.69;;;7.38;100.00
14204;BME280;7185;51.854;6.622;2023-02-11T06:07:05;102990.19;;;7.33;100.00
14204;BME280;7185;51.854;6.622;2023-02-11T06:09:38;102993.84;;;7.39;100.00
14204;BME280;7185;51.854;6.622;2023-02-11T06:12:10;102992.75;;;7.32;100.00
14204;BME280;7185;51.854;6.622;2023-02-11T06:14:41;102990.16;;;7.32;100.00
14204;BME280;7185;51.854;6.622;2023-02-11T06:17:13;102982.22;;;7.29;100.00
14204;BME280;7185;51.854;6.622;2023-02-11T06:19:44;102988.34;;;7.29;100.00
14204;BME280;7185;51.854;6.622;2023-02-11T06:22:16;102991.78;;;7.28;100.00
14204;BME280;7185;51.854;6.622;2023-02-11T06:24:49;103002.63;;;7.41;100.00
14204;BME280;7185;51.854;6.622;2023-02-11T06:27:21;102996.28;;;7.34;100.00
14204;BME280;7185;51.854;6.622;2023-02-11T06:29:52;103002.00;;;7.48;100.00
14204;BME280;7185;51.854;6.622;2023-02-11T06:32:25;102996.88;;;7.25;100.00
14204;BME280;7185;51.854;6.622;2023-02-11T06:34:57;102997.19;;;7.34;100.00
14204;BME280;7185;51.854;6.622;2023-02-11T06:37:29;102995.41;;;7.33;100.00
14204;BME280;7185;51.854;6.622;2023-02-11T06:40:02;102992.84;;;7.35;100.00
14204;BME280;7185;51.854;6.622;2023-02-11T06:42:33;103001.72;;;7.40;100.00
14204;BME280;7185;51.854;6.622;2023-02-11T06:45:08;102998.34;;;7.43;100.00
14204;BME280;7185;51.854;6.622;2023-02-11T06:47:40;102995.50;;;7.37;100.00
14204;BME280;7185;51.854;6.622;2023-02-11T06:50:13;102993.75;;;7.36;100.00
14204;BME280;7185;51.854;6.622;2023-02-11T06:52:44;102995.47;;;7.35;100.00
14204;BME280;7185;51.854;6.622;2023-02-11T06:55:18;102991.84;;;7.31;100.00
14204;BME280;7185;51.854;6.622;2023-02-11T06:57:49;103004.28;;;7.39;100.00
14204;BME280;7185;51.854;6.622;2023-02-11T07:00:21;103010.78;;;7.50;100.00
14204;BME280;7185;51.854;6.622;2023-02-11T07:02:53;103005.94;;;7.37;100.00
14204;BME280;7185;51.854;6.622;2023-02-11T07:05:24;103009.03;;;7.50;100.00
14204;BME280;7185;51.854;6.622;2023-02-11T07:07:56;103006.41;;;7.50;100.00
14204;BME280;7185;51.854;6.622;2023-02-11T07:10:29;103014.38;;;7.54;100.00
14204;BME280;7185;51.854;6.622;2023-02-11T07:13:01;103011.59;;;7.49;100.00
14204;BME280;7185;51.854;6.622;2023-02-11T07:15:32;103009.91;;;7.51;100.00
14204;BME280;7185;51.854;6.622;2023-02-11T07:18:04;103004.59;;;7.48;100.00
14204;BME280;7185;51.854;6.622;2023-02-11T07:20:36;103005.56;;;7.50;100.00
14204;BME280;7185;51.854;6.622;2023-02-11T07:23:07;103014.84;;;7.42;100.00
14204;BME280;7185;51.854;6.622;2023-02-11T07:25:41;103011.25;;;7.38;100.00
14204;BME280;7185;51.854;6.622;2023-02-11T07:28:12;103017.16;;;7.34;100.00
14204;BME280;7185;51.854;6.622;2023-02-11T07:30:44;103014.94;;;7.45;100.00
14204;BME280;7185;51.854;6.622;2023-02-11T07:33:15;103017.81;;;7.53;100.00
14204;BME280;7185;51.854;6.622;2023-02-11T07:35:47;103015.13;;;7.51;100.00
14204;BME280;7185;51.854;6.622;2023-02-11T07:38:18;103021.47;;;7.58;100.00
14204;BME280;7185;51.854;6.622;2023-02-11T07:40:51;103023.81;;;7.50;100.00
14204;BME280;7185;51.854;6.622;2023-02-11T07:43:23;103028.94;;;7.47;100.00
14204;BME280;7185;51.854;6.622;2023-02-11T07:45:54;103031.53;;;7.47;100.00
14204;BME280;7185;51.854;6.622;2023-02-11T07:48:26;103020.34;;;7.51;100.00
14204;BME280;7185;51.854;6.622;2023-02-11T07:51:04;103016.91;;;7.52;100.00
14204;BME280;7185;51.854;6.622;2023-02-11T07:53:36;103030.06;;;7.55;100.00
14204;BME280;7185;51.854;6.622;2023-02-11T07:56:10;103029.13;;;7.53;100.00
14204;BME280;7185;51.854;6.622;2023-02-11T07:58:43;103029.09;;;7.52;100.00
14204;BME280;7185;51.854;6.622;2023-02-11T08:01:18;103029.97;;;7.52;100.00
14204;BME280;7185;51.854;6.622;2023-02-11T08:03:52;103036.25;;;7.57;100.00
14204;BME280;7185;51.854;6.622;2023-02-11T08:06:25;103032.69;;;7.55;100.00
14204;BME280;7185;51.854;6.622;2023-02-11T08:09:01;103039.88;;;7.62;100.00
14204;BME280;7185;51.854;6.622;2023-02-11T08:11:35;103039.97;;;7.65;100.00
14204;BME280;7185;51.854;6.622;2023-02-11T08:14:07;103027.16;;;7.72;100.00
14204;BME280;7185;51.854;6.622;2023-02-11T08:16:39;103032.09;;;7.64;100.00
14204;BME280;7185;51.854;6.622;2023-02-11T08:19:12;103030.72;;;7.75;100.00
14204;BME280;7185;51.854;6.622;2023-02-11T08:21:44;103033.72;;;7.60;100.00
14204;BME280;7185;51.854;6.622;2023-02-11T08:24:16;103044.47;;;7.70;100.00
14204;BME280;7185;51.854;6.622;2023-02-11T08:26:49;103040.72;;;7.61;100.00
14204;BME280;7185;51.854;6.622;2023-02-11T08:29:20;103040.19;;;7.72;100.00
14204;BME280;7185;51.854;6.622;2023-02-11T08:31:52;103035.19;;;7.78;100.00
14204;BME280;7185;51.854;6.622;2023-02-11T08:34:23;103042.66;;;7.94;100.00
14204;BME280;7185;51.854;6.622;2023-02-11T08:36:55;103046.72;;;7.86;100.00
14204;BME280;7185;51.854;6.622;2023-02-11T08:39:26;103048.47;;;8.42;100.00
14204;BME280;7185;51.854;6.622;2023-02-11T08:41:59;103052.91;;;7.88;100.00
14204;BME280;7185;51.854;6.622;2023-02-11T08:44:31;103059.38;;;8.00;100.00
14204;BME280;7185;51.854;6.622;2023-02-11T08:47:03;103066.44;;;8.02;100.00
14204;BME280;7185;51.854;6.622;2023-02-11T08:49:34;103063.97;;;8.07;100.00
14204;BME280;7185;51.854;6.622;2023-02-11T08:52:06;103076.16;;;8.08;100.00
14204;BME280;7185;51.854;6.622;2023-02-11T08:54:38;103076.41;;;7.88;100.00
14204;BME280;7185;51.854;6.622;2023-02-11T08:57:12;103071.38;;;7.94;100.00
14204;BME280;7185;51.854;6.622;2023-02-11T08:59:44;103071.69;;;8.04;100.00
14204;BME280;7185;51.854;6.622;2023-02-11T09:02:19;103076.09;;;8.05;100.00
14204;BME280;7185;51.854;6.622;2023-02-11T09:04:51;103078.25;;;8.18;100.00
14204;BME280;7185;51.854;6.622;2023-02-11T09:07:22;103074.03;;;8.23;100.00
14204;BME280;7185;51.854;6.622;2023-02-11T09:09:54;103079.19;;;8.20;100.00
14204;BME280;7185;51.854;6.622;2023-02-11T09:12:27;103084.44;;;8.22;100.00
14204;BME280;7185;51.854;6.622;2023-02-11T09:14:59;103078.81;;;8.37;100.00
14204;BME280;7185;51.854;6.622;2023-02-11T09:17:30;103082.38;;;8.39;100.00
14204;BME280;7185;51.854;6.622;2023-02-11T09:20:03;103085.00;;;8.40;100.00
14204;BME280;7185;51.854;6.622;2023-02-11T09:22:34;103088.59;;;8.44;100.00
14204;BME280;7185;51.854;6.622;2023-02-11T09:25:06;103082.69;;;8.48;100.00
14204;BME280;7185;51.854;6.622;2023-02-11T09:27:39;103088.47;;;8.67;100.00
14204;BME280;7185;51.854;6.622;2023-02-11T09:30:12;103098.69;;;8.59;100.00
14204;BME280;7185;51.854;6.622;2023-02-11T09:32:43;103108.19;;;8.55;100.00
14204;BME280;7185;51.854;6.622;2023-02-11T09:35:15;103108.28;;;8.60;100.00
14204;BME280;7185;51.854;6.622;2023-02-11T09:37:46;103105.47;;;8.52;100.00
14204;BME280;7185;51.854;6.622;2023-02-11T09:40:18;103110.88;;;8.58;100.00
14204;BME280;7185;51.854;6.622;2023-02-11T09:42:53;103120.31;;;8.53;100.00
14204;BME280;7185;51.854;6.622;2023-02-11T09:45:28;103114.13;;;8.51;100.00
14204;BME280;7185;51.854;6.622;2023-02-11T09:48:04;103121.34;;;8.58;100.00
14204;BME280;7185;51.854;6.622;2023-02-11T09:50:39;103121.44;;;8.61;100.00
14204;BME280;7185;51.854;6.622;2023-02-11T09:53:18;103128.50;;;8.64;100.00
14204;BME280;7185;51.854;6.622;2023-02-11T09:55:52;103135.84;;;8.77;100.00
14204;BME280;7185;51.854;6.622;2023-02-11T09:58:29;103139.09;;;8.69;100.00
14204;BME280;7185;51.854;6.622;2023-02-11T10:01:06;103136.47;;;8.69;100.00
14204;BME280;7185;51.854;6.622;2023-02-11T10:03:43;103142.69;;;8.72;100.00
14204;BME280;7185;51.854;6.622;2023-02-11T10:06:35;103143.41;;;8.68;100.00
14204;BME280;7185;51.854;6.622;2023-02-11T10:09:20;103139.28;;;8.75;100.00
14204;BME280;7185;51.854;6.622;2023-02-11T10:12:02;103143.09;;;8.86;100.00
14204;BME280;7185;51.854;6.622;2023-02-11T10:14:55;103148.13;;;8.80;100.00
14204;BME280;7185;51.854;6.622;2023-02-11T10:17:37;103144.84;;;8.86;100.00
14204;BME280;7185;51.854;6.622;2023-02-11T10:20:19;103149.91;;;8.81;100.00
14204;BME280;7185;51.854;6.622;2023-02-11T10:22:56;103147.41;;;8.84;100.00
14204;BME280;7185;51.854;6.622;2023-02-11T10:25:32;103157.22;;;8.91;100.00
14204;BME280;7185;51.854;6.622;2023-02-11T10:28:12;103163.47;;;8.97;100.00
14204;BME280;7185;51.854;6.622;2023-02-11T10:30:53;103167.09;;;9.02;100.00
14204;BME280;7185;51.854;6.622;2023-02-11T10:33:30;103172.47;;;9.06;100.00
14204;BME280;7185;51.854;6.622;2023-02-11T10:36:05;103177.72;;;9.06;100.00
14204;BME280;7185;51.854;6.622;2023-02-11T10:38:38;103178.59;;;9.07;100.00
14204;BME280;7185;51.854;6.622;2023-02-11T10:41:12;103184.13;;;9.18;100.00
14204;BME280;7185;51.854;6.622;2023-02-11T10:43:47;103184.69;;;9.36;100.00
14204;BME280;7185;51.854;6.622;2023-02-11T10:46:23;103187.78;;;9.23;100.00
14204;BME280;7185;51.854;6.622;2023-02-11T10:48:56;103185.88;;;9.17;100.00
14204;BME280;7185;51.854;6.622;2023-02-11T10:51:29;103190.19;;;9.17;100.00
14204;BME280;7185;51.854;6.622;2023-02-11T10:54:11;103187.47;;;9.12;100.00
14204;BME280;7185;51.854;6.622;2023-02-11T10:56:50;103183.88;;;9.08;100.00
14204;BME280;7185;51.854;6.622;2023-02-11T10:59:26;103183.91;;;9.10;100.00
14204;BME280;7185;51.854;6.622;2023-02-11T11:02:01;103186.88;;;9.22;100.00
14204;BME280;7185;51.854;6.622;2023-02-11T11:04:39;103195.09;;;9.35;100.00
14204;BME280;7185;51.854;6.622;2023-02-11T11:07:15;103189.47;;;9.21;100.00
14204;BME280;7185;51.854;6.622;2023-02-11T11:09:50;103193.91;;;9.23;100.00
14204;BME280;7185;51.854;6.622;2023-02-11T11:12:31;103192.16;;;9.24;100.00
14204;BME280;7185;51.854;6.622;2023-02-11T11:15:18;103195.00;;;9.32;100.00
14204;BME280;7185;51.854;6.622;2023-02-11T11:18:09;103191.19;;;9.20;100.00
14204;BME280;7185;51.854;6.622;2023-02-11T11:20:54;103185.69;;;9.41;100.00
14204;BME280;7185;51.854;6.622;2023-02-11T11:23:28;103184.72;;;9.38;100.00
14204;BME280;7185;51.854;6.622;2023-02-11T11:26:05;103174.63;;;9.21;100.00
14204;BME280;7185;51.854;6.622;2023-02-11T11:28:39;103179.44;;;9.36;100.00
14204;BME280;7185;51.854;6.622;2023-02-11T11:31:14;103169.97;;;9.41;100.00
14204;BME280;7185;51.854;6.622;2023-02-11T11:33:52;103178.13;;;9.52;100.00
14204;BME280;7185;51.854;6.622;2023-02-11T11:36:32;103172.72;;;9.46;100.00
14204;BME280;7185;51.854;6.622;2023-02-11T11:39:17;103179.00;;;9.53;100.00
14204;BME280;7185;51.854;6.622;2023-02-11T11:41:54;103176.03;;;9.39;100.00
14204;BME280;7185;51.854;6.622;2023-02-11T11:44:27;103170.78;;;9.39;100.00
14204;BME280;7185;51.854;6.622;2023-02-11T11:47:19;103168.84;;;9.32;100.00
14204;BME280;7185;51.854;6.622;2023-02-11T11:50:12;103159.03;;;9.56;100.00
14204;BME280;7185;51.854;6.622;2023-02-11T11:52:55;103156.53;;;9.61;100.00
14204;BME280;7185;51.854;6.622;2023-02-11T11:55:34;103166.94;;;9.58;100.00
14204;BME280;7185;51.854;6.622;2023-02-11T11:58:13;103173.16;;;9.62;100.00
14204;BME280;7185;51.854;6.622;2023-02-11T12:00:56;103182.34;;;9.79;100.00
14204;BME280;7185;51.854;6.622;2023-02-11T12:04:08;103179.00;;;9.53;100.00
14204;BME280;7185;51.854;6.622;2023-02-11T12:06:53;103178.94;;;9.50;100.00
14204;BME280;7185;51.854;6.622;2023-02-11T12:09:31;103174.22;;;9.70;100.00
14204;BME280;7185;51.854;6.622;2023-02-11T12:12:26;103179.63;;;9.76;100.00
14204;BME280;7185;51.854;6.622;2023-02-11T12:15:12;103188.66;;;9.87;100.00
14204;BME280;7185;51.854;6.622;2023-02-11T12:18:03;103182.44;;;9.82;100.00
14204;BME280;7185;51.854;6.622;2023-02-11T12:20:58;103180.81;;;9.87;100.00
14204;BME280;7185;51.854;6.622;2023-02-11T12:23:47;103184.53;;;9.96;100.00
14204;BME280;7185;51.854;6.622;2023-02-11T12:26:27;103177.81;;;10.07;100.00
14204;BME280;7185;51.854;6.622;2023-02-11T12:29:07;103169.22;;;10.13;100.00
14204;BME280;7185;51.854;6.622;2023-02-11T12:31:55;103168.53;;;10.20;100.00
14204;BME280;7185;51.854;6.622;2023-02-11T12:34:52;103158.31;;;10.32;100.00
14204;BME280;7185;51.854;6.622;2023-02-11T12:37:36;103159.69;;;10.51;100.00
14204;BME280;7185;51.854;6.622;2023-02-11T12:40:17;103165.53;;;10.40;100.00
14204;BME280;7185;51.854;6.622;2023-02-11T12:43:04;103154.56;;;10.58;100.00
14204;BME280;7185;51.854;6.622;2023-02-11T12:46:09;103146.38;;;10.44;100.00
14204;BME280;7185;51.854;6.622;2023-02-11T12:49:04;103145.91;;;10.62;100.00
14204;BME280;7185;51.854;6.622;2023-02-11T12:51:48;103150.81;;;10.86;100.00
14204;BME280;7185;51.854;6.622;2023-02-11T12:54:26;103153.88;;;11.06;100.00
14204;BME280;7185;51.854;6.622;2023-02-11T12:57:05;103155.84;;;11.16;100.00
14204;BME280;7185;51.854;6.622;2023-02-11T12:59:47;103150.50;;;11.13;100.00
14204;BME280;7185;51.854;6.622;2023-02-11T13:02:27;103154.22;;;10.80;100.00
14204;BME280;7185;51.854;6.622;2023-02-11T13:05:03;103146.84;;;11.05;100.00
14204;BME280;7185;51.854;6.622;2023-02-11T13:07:38;103146.44;;;10.85;100.00
14204;BME280;7185;51.854;6.622;2023-02-11T13:10:24;103145.84;;;10.98;100.00
14204;BME280;7185;51.854;6.622;2023-02-11T13:12:59;103144.94;;;10.98;100.00
14204;BME280;7185;51.854;6.622;2023-02-11T13:15:50;103146.91;;;11.08;100.00
14204;BME280;7185;51.854;6.622;2023-02-11T13:18:30;103146.19;;;11.15;100.00
14204;BME280;7185;51.854;6.622;2023-02-11T13:21:24;103150.88;;;11.32;99.81
14204;BME280;7185;51.854;6.622;2023-02-11T13:24:04;103142.03;;;11.27;99.14
14204;BME280;7185;51.854;6.622;2023-02-11T13:26:43;103142.84;;;11.24;98.82
14204;BME280;7185;51.854;6.622;2023-02-11T13:29:25;103141.84;;;11.18;99.55
14204;BME280;7185;51.854;6.622;2023-02-11T13:32:06;103138.31;;;11.15;99.62
14204;BME280;7185;51.854;6.622;2023-02-11T13:34:56;103132.78;;;11.03;100.00
14204;BME280;7185;51.854;6.622;2023-02-11T13:37:31;103131.41;;;11.21;98.89
14204;BME280;7185;51.854;6.622;2023-02-11T13:40:19;103136.22;;;10.99;99.81
14204;BME280;7185;51.854;6.622;2023-02-11T13:42:53;103137.16;;;11.03;99.47
14204;BME280;7185;51.854;6.622;2023-02-11T13:45:32;103136.22;;;10.99;100.00